Goessel, Kansas
Current Conditions -  °F | °C
As of 2:35 PM on Tuesday 21 Oct 2014 (Local Time) from KEWK Reporting Station
Clear Clear  
Wind Chill: 77°   Ceiling: Unl
Heat Index: 78°   Visibility: 10mi
Dew Point: 54°   Wind: 12mph
Humidity: 44%   Direction: 150°SSE
Pressure: 30.07"   Gusts: 18mph
Location:  38.25°N, 97.35°W
Report Text: KEWK 211935Z AUTO 15010G16KT 10SM CLR 25/12 A3007 RMK AO1
Loading
Personal Weather Stations






























Interactive Weather Map
Tropical Storm Tracking
New forecast layout! Learn more

10-Day Weather Forecast

Advertisements
Track Severe Weather on mobile